createdAt,value
2019-04-14T00:02:09.682Z,21.60
2019-04-14T00:06:15.916Z,20.30
2019-04-14T00:10:22.464Z,13.40
2019-04-14T00:14:27.244Z,23.90
2019-04-14T00:18:31.934Z,19.20
2019-04-14T00:22:36.630Z,13.30
2019-04-14T00:26:42.284Z,10.98
2019-04-14T00:30:47.107Z,12.23
2019-04-14T00:35:03.893Z,12.75
2019-04-14T00:39:20.479Z,12.95
2019-04-14T00:43:33.087Z,14.45
2019-04-14T00:47:52.007Z,12.80
2019-04-14T00:51:48.521Z,12.30
2019-04-14T00:55:53.421Z,12.45
2019-04-14T00:59:58.095Z,13.50
2019-04-14T01:04:03.460Z,15.10
2019-04-14T01:08:09.665Z,14.10
2019-04-14T01:12:14.946Z,12.90
2019-04-14T01:16:23.075Z,15.95
2019-04-14T01:20:27.434Z,16.40
2019-04-14T01:24:33.565Z,15.50
2019-04-14T01:28:39.636Z,14.47
2019-04-14T01:32:45.509Z,14.13
2019-04-14T01:36:50.397Z,15.95
2019-04-14T01:40:55.304Z,14.65
2019-04-14T01:45:01.379Z,15.43
2019-04-14T01:49:07.244Z,13.93
2019-04-14T01:53:27.472Z,17.90
2019-04-14T01:57:54.616Z,15.93
2019-04-14T02:02:00.767Z,15.23
2019-04-14T02:06:05.737Z,14.70
2019-04-14T02:10:10.896Z,17.57
2019-04-14T02:14:16.786Z,15.40
2019-04-14T02:18:22.829Z,15.15
2019-04-14T02:22:28.822Z,15.43
2019-04-14T02:26:35.044Z,15.15
2019-04-14T02:30:51.214Z,15.05
2019-04-14T02:35:15.089Z,16.30
2019-04-14T02:39:20.974Z,15.68
2019-04-14T02:43:29.587Z,15.90
2019-04-14T02:51:38.492Z,15.58
2019-04-14T02:55:54.760Z,14.07
2019-04-14T02:59:52.921Z,15.30
2019-04-14T03:03:56.785Z,15.13
2019-04-14T03:07:59.964Z,15.75
2019-04-14T03:12:09.479Z,14.23
2019-04-14T03:20:47.573Z,14.55
2019-04-14T03:24:55.399Z,19.15
2019-04-14T03:29:21.012Z,14.73
2019-04-14T03:33:48.312Z,16.05
2019-04-14T03:41:38.660Z,16.37
2019-04-14T03:46:04.825Z,15.95
2019-04-14T03:53:53.362Z,16.30
2019-04-14T03:57:39.026Z,16.65
2019-04-14T04:01:43.977Z,16.25
2019-04-14T04:05:49.966Z,16.62
2019-04-14T04:09:58.830Z,16.75
2019-04-14T04:14:03.696Z,17.62
2019-04-14T04:18:14.109Z,15.88
2019-04-14T04:22:36.961Z,16.05
2019-04-14T04:26:51.722Z,15.90
2019-04-14T04:31:02.409Z,15.90
2019-04-14T04:35:22.562Z,17.50
2019-04-14T04:39:33.772Z,17.87
2019-04-14T04:43:37.247Z,19.42
2019-04-14T04:47:42.647Z,19.17
2019-04-14T04:51:48.567Z,15.80
2019-04-14T04:55:54.648Z,17.12
2019-04-14T05:00:00.600Z,16.87
2019-04-14T05:04:06.947Z,16.85
2019-04-14T05:08:13.012Z,17.55
2019-04-14T05:12:37.343Z,17.50
2019-04-14T05:16:42.031Z,16.77
2019-04-14T05:20:51.049Z,16.95
2019-04-14T05:24:57.095Z,15.03
2019-04-14T05:29:02.085Z,18.77
2019-04-14T05:33:07.451Z,20.27
2019-04-14T05:37:12.269Z,18.23
2019-04-14T05:41:17.996Z,15.00
2019-04-14T05:45:23.999Z,14.38
2019-04-14T05:49:37.852Z,15.95
2019-04-14T05:53:35.314Z,16.55
2019-04-14T05:57:40.016Z,15.65
2019-04-14T06:01:44.721Z,13.53
2019-04-14T06:05:49.658Z,11.90
2019-04-14T06:09:54.234Z,14.38
2019-04-14T06:13:58.893Z,12.20
2019-04-14T06:18:03.749Z,13.22
2019-04-14T06:22:08.348Z,12.63
2019-04-14T06:26:13.111Z,13.83
2019-04-14T06:30:32.989Z,11.18
2019-04-14T06:34:55.556Z,11.18
2019-04-14T06:39:06.694Z,13.38
2019-04-14T06:43:11.752Z,12.93
2019-04-14T06:47:16.833Z,14.00
2019-04-14T06:51:21.753Z,13.65
2019-04-14T06:55:26.383Z,15.05
2019-04-14T06:59:31.398Z,16.37
2019-04-14T07:03:36.040Z,14.55
2019-04-14T07:07:40.692Z,14.87
2019-04-14T07:11:45.583Z,14.93
2019-04-14T07:15:57.070Z,15.75
2019-04-14T07:20:02.779Z,13.68
2019-04-14T07:24:07.392Z,16.17
2019-04-14T07:28:12.413Z,14.30
2019-04-14T07:32:36.884Z,15.23
2019-04-14T07:41:31.850Z,15.03
2019-04-14T07:45:53.712Z,15.32
2019-04-14T07:50:17.495Z,16.75
2019-04-14T07:54:30.477Z,18.23
2019-04-14T07:58:52.962Z,17.85
2019-04-14T08:03:02.227Z,15.50
2019-04-14T08:07:08.135Z,18.05
2019-04-14T08:11:12.866Z,17.85
2019-04-14T08:15:17.530Z,18.32
2019-04-14T08:19:22.214Z,19.67
2019-04-14T08:23:26.857Z,18.67
2019-04-14T08:27:31.501Z,21.70
2019-04-14T08:31:36.094Z,18.17
2019-04-14T08:35:45.270Z,17.00
2019-04-14T08:39:50.017Z,20.17
2019-04-14T08:44:15.232Z,19.95
2019-04-14T08:48:47.024Z,21.05
2019-04-14T08:53:02.732Z,19.23
2019-04-14T08:57:29.311Z,19.32
2019-04-14T09:01:55.850Z,17.92
2019-04-14T09:06:12.434Z,17.92
2019-04-14T09:10:28.242Z,16.90
2019-04-14T09:14:56.905Z,17.67
2019-04-14T09:19:07.072Z,19.25
2019-04-14T09:23:02.434Z,17.12
2019-04-14T09:27:07.143Z,17.00
2019-04-14T09:31:11.807Z,19.02
2019-04-14T09:35:35.565Z,17.07
2019-04-14T09:39:40.232Z,20.45
2019-04-14T09:43:44.874Z,18.80
2019-04-14T09:47:49.939Z,20.08
2019-04-14T09:51:57.084Z,20.70
2019-04-14T09:56:01.761Z,18.10
2019-04-14T10:00:08.029Z,16.75
2019-04-14T10:04:12.820Z,16.73
2019-04-14T10:08:18.713Z,17.50
2019-04-14T10:12:23.956Z,18.65
2019-04-14T10:16:29.181Z,20.88
2019-04-14T10:20:34.021Z,36.93
2019-04-14T10:24:39.029Z,31.45
2019-04-14T10:28:43.992Z,17.62
2019-04-14T10:32:48.733Z,30.10
2019-04-14T10:36:53.357Z,45.70
2019-04-14T10:40:58.067Z,30.68
2019-04-14T10:45:02.749Z,66.05
2019-04-14T10:49:07.327Z,26.50
2019-04-14T10:53:12.022Z,42.78
2019-04-14T10:57:16.849Z,33.53
2019-04-14T11:01:23.046Z,19.98
2019-04-14T11:05:34.861Z,16.55
2019-04-14T11:09:39.595Z,19.77
2019-04-14T11:13:44.276Z,16.15
2019-04-14T11:17:49.323Z,17.98
2019-04-14T11:21:54.358Z,21.07
2019-04-14T11:25:59.096Z,20.10
2019-04-14T11:30:04.907Z,16.85
2019-04-14T11:34:11.535Z,17.98
2019-04-14T11:38:29.088Z,15.35
2019-04-14T11:42:34.095Z,17.32
2019-04-14T11:46:39.296Z,15.35
2019-04-14T11:50:43.934Z,13.80
2019-04-14T11:54:49.977Z,14.98
2019-04-14T11:58:54.773Z,13.80
2019-04-14T12:03:10.505Z,13.40
2019-04-14T12:07:23.914Z,14.50
2019-04-14T12:11:28.783Z,17.03
2019-04-14T12:15:34.501Z,13.22
2019-04-14T12:19:39.785Z,18.40
2019-04-14T12:23:46.147Z,14.10
2019-04-14T12:27:51.560Z,19.07
2019-04-14T12:31:57.471Z,17.48
2019-04-14T12:36:08.339Z,15.28
2019-04-14T12:40:15.167Z,14.03
2019-04-14T12:44:40.476Z,12.90
2019-04-14T12:48:50.672Z,13.72
2019-04-14T12:52:56.896Z,13.93
2019-04-14T12:57:01.654Z,14.30
2019-04-14T13:01:10.680Z,13.40
2019-04-14T13:05:18.781Z,11.95
2019-04-14T13:09:26.137Z,13.75
2019-04-14T13:13:30.823Z,13.18
2019-04-14T13:17:35.763Z,12.70
2019-04-14T13:21:40.637Z,12.18
2019-04-14T13:25:45.547Z,12.28
2019-04-14T13:29:52.631Z,12.28
2019-04-14T13:33:57.429Z,12.68
2019-04-14T13:38:03.602Z,33.75
2019-04-14T13:42:08.345Z,20.80
2019-04-14T13:46:15.890Z,30.00
2019-04-14T13:50:20.648Z,18.87
2019-04-14T13:54:25.311Z,18.62
2019-04-14T13:58:30.318Z,20.55
2019-04-14T14:02:34.970Z,16.60
2019-04-14T14:06:39.604Z,10.35
2019-04-14T14:10:44.328Z,17.75
2019-04-14T14:15:00.835Z,17.35
2019-04-14T14:19:24.816Z,12.78
2019-04-14T14:23:48.808Z,13.80
2019-04-14T14:27:53.467Z,21.75
2019-04-14T14:31:58.787Z,15.85
2019-04-14T14:36:03.590Z,12.88
2019-04-14T14:40:09.558Z,13.90
2019-04-14T14:44:14.300Z,10.35
2019-04-14T14:48:26.052Z,11.63
2019-04-14T14:52:31.422Z,13.72
2019-04-14T14:56:36.458Z,11.85
2019-04-14T15:00:41.053Z,11.50
2019-04-14T15:04:45.834Z,12.37
2019-04-14T15:08:50.502Z,10.05
2019-04-14T15:12:55.374Z,11.78
2019-04-14T15:17:00.062Z,14.60
2019-04-14T15:21:04.960Z,11.15
2019-04-14T15:25:09.882Z,9.30
2019-04-14T15:29:14.510Z,10.03
2019-04-14T15:33:19.109Z,10.60
2019-04-14T15:37:23.818Z,9.08
2019-04-14T15:41:28.431Z,9.58
2019-04-14T15:45:33.438Z,10.05
2019-04-14T15:49:38.141Z,11.73
2019-04-14T15:53:43.061Z,9.93
2019-04-14T15:58:02.794Z,10.30
2019-04-14T16:02:19.273Z,11.30
2019-04-14T16:06:32.089Z,11.18
2019-04-14T16:11:14.483Z,10.90
2019-04-14T16:15:50.413Z,11.93
2019-04-14T16:19:59.829Z,10.68
2019-04-14T16:24:04.545Z,11.12
2019-04-14T16:28:20.617Z,13.13
2019-04-14T16:33:02.509Z,13.20
2019-04-14T16:37:08.274Z,17.92
2019-04-14T16:41:12.933Z,43.13
2019-04-14T16:45:20.787Z,68.02
2019-04-14T16:49:25.419Z,58.33
2019-04-14T16:53:33.274Z,66.45
2019-04-14T16:58:02.821Z,45.15
2019-04-14T17:02:11.152Z,66.40
2019-04-14T17:06:14.027Z,20.75
2019-04-14T17:10:18.707Z,79.12
2019-04-14T17:14:29.927Z,125.22
2019-04-14T17:18:54.444Z,21.75
2019-04-14T17:23:17.420Z,44.08
2019-04-14T17:27:41.163Z,82.30
2019-04-14T17:31:59.456Z,63.55
2019-04-14T17:36:20.906Z,16.05
2019-04-14T17:40:47.450Z,22.90
2019-04-14T17:45:14.919Z,33.20
2019-04-14T17:49:53.992Z,22.17
2019-04-14T17:54:04.022Z,18.32
2019-04-14T17:58:32.628Z,15.90
2019-04-14T18:02:59.417Z,22.73
2019-04-14T18:07:35.138Z,26.30
2019-04-14T18:11:57.694Z,101.65
2019-04-14T18:16:24.961Z,73.92
2019-04-14T18:20:33.095Z,10.10
2019-04-14T18:24:42.627Z,28.87
2019-04-14T18:28:54.299Z,24.67
2019-04-14T18:33:04.887Z,50.80
2019-04-14T18:37:19.399Z,10.30
2019-04-14T18:41:40.667Z,42.93
2019-04-14T18:45:54.343Z,47.75
2019-04-14T18:50:17.460Z,21.05
2019-04-14T18:54:28.853Z,30.45
2019-04-14T18:58:55.801Z,70.17
2019-04-14T19:03:00.572Z,69.77
2019-04-14T19:07:05.431Z,33.18
2019-04-14T19:11:38.314Z,28.70
2019-04-14T19:15:55.094Z,78.80
2019-04-14T19:20:01.667Z,29.77
2019-04-14T19:24:06.689Z,89.28
2019-04-14T19:28:11.353Z,104.87
2019-04-14T19:32:16.064Z,178.57
2019-04-14T19:36:20.886Z,201.02
2019-04-14T19:40:25.643Z,224.25
2019-04-14T19:44:30.529Z,158.65
2019-04-14T19:48:35.263Z,51.98
2019-04-14T19:52:39.882Z,54.10
2019-04-14T19:56:44.565Z,32.30
2019-04-14T20:00:53.060Z,83.30
2019-04-14T20:04:57.918Z,25.82
2019-04-14T20:09:02.700Z,44.15
2019-04-14T20:13:09.093Z,57.38
2019-04-14T20:17:33.094Z,28.62
2019-04-14T20:21:56.137Z,35.75
2019-04-14T20:26:35.669Z,36.42
2019-04-14T20:30:44.338Z,24.57
2019-04-14T20:34:49.222Z,22.35
2019-04-14T20:38:54.361Z,37.17
2019-04-14T20:42:59.058Z,56.83
2019-04-14T20:47:05.593Z,128.27
2019-04-14T20:51:10.305Z,63.20
2019-04-14T20:55:15.372Z,95.25
2019-04-14T20:59:20.293Z,67.40
2019-04-14T21:03:37.949Z,38.67
2019-04-14T21:08:01.100Z,48.15
2019-04-14T21:12:23.728Z,50.35
2019-04-14T21:16:37.862Z,66.85
2019-04-14T21:20:56.038Z,55.45
2019-04-14T21:25:13.314Z,36.98
2019-04-14T21:29:35.764Z,12.18
2019-04-14T21:33:47.956Z,15.72
2019-04-14T21:37:56.896Z,24.95
2019-04-14T21:42:01.597Z,15.13
2019-04-14T21:46:06.418Z,18.27
2019-04-14T21:50:11.905Z,15.23
2019-04-14T21:54:17.428Z,14.70
2019-04-14T21:58:31.196Z,15.08
2019-04-14T22:03:03.633Z,9.73
2019-04-14T22:07:26.433Z,11.50
2019-04-14T22:11:31.688Z,12.50
2019-04-14T22:15:36.450Z,10.82
2019-04-14T22:19:41.158Z,71.07
2019-04-14T22:23:59.919Z,29.00
2019-04-14T22:27:54.043Z,49.05
2019-04-14T22:31:58.915Z,29.52
2019-04-14T22:36:04.510Z,27.32
2019-04-14T22:40:11.065Z,14.83
2019-04-14T22:44:15.738Z,64.95
2019-04-14T22:48:21.382Z,43.55
2019-04-14T22:52:26.854Z,19.20
2019-04-14T22:56:39.291Z,15.65
2019-04-14T23:00:46.168Z,16.62
2019-04-14T23:05:06.200Z,39.10
2019-04-14T23:09:24.492Z,15.78
2019-04-14T23:14:00.871Z,27.85
2019-04-14T23:18:28.947Z,41.70
2019-04-14T23:22:50.023Z,81.57
2019-04-14T23:26:54.739Z,7.35
2019-04-14T23:31:01.655Z,7.08
2019-04-14T23:35:06.329Z,7.25
2019-04-14T23:39:12.589Z,7.08
2019-04-14T23:43:17.169Z,7.50
2019-04-14T23:47:21.743Z,6.37
2019-04-14T23:51:26.614Z,6.35
2019-04-14T23:55:31.553Z,6.70
2019-04-14T23:59:36.165Z,7.87
